createdAt,value
2023-12-09T00:00:01.554Z,33.6
2023-12-09T00:01:01.334Z,33.6
2023-12-09T00:02:01.122Z,33.6
2023-12-09T00:03:01.386Z,33.6
2023-12-09T00:04:01.474Z,33.6
2023-12-09T00:05:02.476Z,33.6
2023-12-09T00:06:01.262Z,33.6
2023-12-09T00:07:01.640Z,33.6
2023-12-09T00:08:01.103Z,33.6
2023-12-09T00:09:01.241Z,33.6
2023-12-09T00:10:02.262Z,33.6
2023-12-09T00:11:01.520Z,33.6
2023-12-09T00:12:01.465Z,33.6
2023-12-09T00:13:01.102Z,33.6
2023-12-09T00:14:03.898Z,33.4
2023-12-09T00:15:01.496Z,33.4
2023-12-09T00:16:01.155Z,33.4
2023-12-09T00:17:01.122Z,33.6
2023-12-09T00:18:01.359Z,33.4
2023-12-09T00:19:01.275Z,33.3
2023-12-09T00:20:01.440Z,33.1
2023-12-09T00:21:01.491Z,33.1
2023-12-09T00:22:01.458Z,33.3
2023-12-09T00:23:01.096Z,33.1
2023-12-09T00:24:01.800Z,33.1
2023-12-09T00:25:01.330Z,33.3
2023-12-09T00:26:01.096Z,33.1
2023-12-09T00:27:01.151Z,33.1
2023-12-09T00:28:01.127Z,33.1
2023-12-09T00:29:01.110Z,33.1
2023-12-09T00:30:01.500Z,33.1
2023-12-09T00:31:01.175Z,33.1
2023-12-09T00:32:01.114Z,32.9
2023-12-09T00:33:01.523Z,32.9
2023-12-09T00:34:01.756Z,32.9
2023-12-09T00:35:01.556Z,32.9
2023-12-09T00:36:01.259Z,32.7
2023-12-09T00:37:01.103Z,32.9
2023-12-09T00:38:01.419Z,32.7
2023-12-09T00:39:01.661Z,32.7
2023-12-09T00:40:01.096Z,32.9
2023-12-09T00:41:01.169Z,32.7
2023-12-09T00:42:01.459Z,32.9
2023-12-09T00:43:01.102Z,32.9
2023-12-09T00:44:01.114Z,32.7
2023-12-09T00:45:01.475Z,32.5
2023-12-09T00:46:01.453Z,32.5
2023-12-09T00:47:01.327Z,32.4
2023-12-09T00:48:01.322Z,32.5
2023-12-09T00:49:01.185Z,32.4
2023-12-09T00:50:01.989Z,32.4
2023-12-09T00:51:01.196Z,32.2
2023-12-09T00:52:01.104Z,32.4
2023-12-09T00:53:01.439Z,32.2
2023-12-09T00:54:01.138Z,32.2
2023-12-09T00:55:01.678Z,32.2
2023-12-09T00:56:01.424Z,32.2
2023-12-09T00:57:01.447Z,31.8
2023-12-09T00:58:01.254Z,31.8
2023-12-09T00:59:01.216Z,31.8
2023-12-09T01:00:01.170Z,31.8
2023-12-09T01:01:01.475Z,32.0
2023-12-09T01:02:01.495Z,32.0
2023-12-09T01:03:01.526Z,32.0
2023-12-09T01:04:01.416Z,32.0
2023-12-09T01:05:01.278Z,32.0
2023-12-09T01:06:01.470Z,32.0
2023-12-09T01:07:01.098Z,32.2
2023-12-09T01:08:01.446Z,32.0
2023-12-09T01:09:01.353Z,32.0
2023-12-09T01:10:01.126Z,32.0
2023-12-09T01:11:01.135Z,31.8
2023-12-09T01:12:01.816Z,31.8
2023-12-09T01:13:01.425Z,32.0
2023-12-09T01:14:01.133Z,31.8
2023-12-09T01:15:01.491Z,31.8
2023-12-09T01:16:01.416Z,31.6
2023-12-09T01:17:01.106Z,31.6
2023-12-09T01:18:01.210Z,31.6
2023-12-09T01:19:01.125Z,31.6
2023-12-09T01:20:01.452Z,31.6
2023-12-09T01:21:01.435Z,31.6
2023-12-09T01:22:01.120Z,31.5
2023-12-09T01:23:01.126Z,31.6
2023-12-09T01:24:01.511Z,31.6
2023-12-09T01:25:01.498Z,31.6
2023-12-09T01:26:01.444Z,31.6
2023-12-09T01:27:01.495Z,31.6
2023-12-09T01:28:01.465Z,31.6
2023-12-09T01:29:01.447Z,31.6
2023-12-09T01:30:01.212Z,31.5
2023-12-09T01:31:01.235Z,31.5
2023-12-09T01:32:01.125Z,31.5
2023-12-09T01:33:01.260Z,31.5
2023-12-09T01:34:01.267Z,31.6
2023-12-09T01:35:01.274Z,31.6
2023-12-09T01:36:01.109Z,31.6
2023-12-09T01:37:01.103Z,31.5
2023-12-09T01:38:01.434Z,31.6
2023-12-09T01:39:01.257Z,31.6
2023-12-09T01:40:01.129Z,31.6
2023-12-09T01:41:01.514Z,31.6
2023-12-09T01:42:01.373Z,31.6
2023-12-09T01:43:01.430Z,31.8
2023-12-09T01:44:01.114Z,31.8
2023-12-09T01:45:01.554Z,31.8
2023-12-09T01:46:05.511Z,31.8
2023-12-09T01:47:01.637Z,31.8
2023-12-09T01:48:01.515Z,31.8
2023-12-09T01:49:01.829Z,31.6
2023-12-09T01:50:01.959Z,31.6
2023-12-09T01:51:02.229Z,31.6
2023-12-09T01:52:02.583Z,31.5
2023-12-09T01:53:01.796Z,31.5
2023-12-09T01:54:01.551Z,31.6
2023-12-09T01:55:01.696Z,31.8
2023-12-09T01:56:03.546Z,31.8
2023-12-09T01:57:01.284Z,31.6
2023-12-09T01:58:01.539Z,31.6
2023-12-09T01:59:02.364Z,31.5
2023-12-09T02:00:02.683Z,31.6
2023-12-09T02:01:01.171Z,31.6
2023-12-09T02:02:01.715Z,31.6
2023-12-09T02:03:01.707Z,31.8
2023-12-09T02:04:02.705Z,31.8
2023-12-09T02:05:02.773Z,31.8
2023-12-09T02:06:01.631Z,31.8
2023-12-09T02:07:01.476Z,31.8
2023-12-09T02:08:01.603Z,31.8
2023-12-09T02:09:01.628Z,31.8
2023-12-09T02:10:01.267Z,31.6
2023-12-09T02:11:11.516Z,31.8
2023-12-09T02:12:11.440Z,31.8
2023-12-09T02:13:11.421Z,31.6
2023-12-09T02:14:07.031Z,31.8
2023-12-09T02:15:07.000Z,31.6
2023-12-09T02:16:09.766Z,31.8
2023-12-09T02:17:08.301Z,31.8
2023-12-09T02:18:04.021Z,31.8
2023-12-09T02:19:02.062Z,31.5
2023-12-09T02:20:02.713Z,31.3
2023-12-09T02:21:01.157Z,30.9
2023-12-09T02:22:03.183Z,31.1
2023-12-09T02:23:05.761Z,30.9
2023-12-09T02:24:01.163Z,30.9
2023-12-09T02:25:01.116Z,30.7
2023-12-09T02:26:07.967Z,31.1
2023-12-09T02:27:08.761Z,31.1
2023-12-09T02:28:05.922Z,30.9
2023-12-09T02:29:08.052Z,31.1
2023-12-09T02:30:13.787Z,31.3
2023-12-09T02:31:11.685Z,31.5
2023-12-09T02:32:05.835Z,31.6
2023-12-09T02:33:05.103Z,31.5
2023-12-09T02:34:03.345Z,31.5
2023-12-09T02:35:03.747Z,31.5
2023-12-09T02:36:03.975Z,31.5
2023-12-09T02:37:03.893Z,31.5
2023-12-09T02:38:02.688Z,31.5
2023-12-09T02:39:02.520Z,31.5
2023-12-09T02:40:02.396Z,31.5
2023-12-09T02:41:02.336Z,31.6
2023-12-09T02:42:04.242Z,31.6
2023-12-09T02:43:03.071Z,31.8
2023-12-09T02:44:01.441Z,32.2
2023-12-09T02:45:01.768Z,32.5
2023-12-09T02:46:01.132Z,32.5
2023-12-09T02:47:01.654Z,32.7
2023-12-09T02:48:01.473Z,32.4
2023-12-09T02:49:01.616Z,32.4
2023-12-09T02:50:01.433Z,32.7
2023-12-09T02:51:01.664Z,32.7
2023-12-09T02:52:01.107Z,32.7
2023-12-09T02:53:01.446Z,32.5
2023-12-09T02:54:01.151Z,32.4
2023-12-09T02:55:01.139Z,32.4
2023-12-09T02:56:01.092Z,32.2
2023-12-09T02:57:01.545Z,32.0
2023-12-09T02:58:01.104Z,32.0
2023-12-09T02:59:01.334Z,31.6
2023-12-09T03:00:01.218Z,31.6
2023-12-09T03:01:01.152Z,31.6
2023-12-09T03:02:01.096Z,31.5
2023-12-09T03:03:01.207Z,31.5
2023-12-09T03:04:02.140Z,31.3
2023-12-09T03:05:01.154Z,31.3
2023-12-09T03:06:01.112Z,31.1
2023-12-09T03:07:01.495Z,31.3
2023-12-09T03:08:01.128Z,31.6
2023-12-09T03:09:01.135Z,32.2
2023-12-09T03:10:01.362Z,32.2
2023-12-09T03:11:01.100Z,32.4
2023-12-09T03:12:01.166Z,32.5
2023-12-09T03:13:01.429Z,32.4
2023-12-09T03:14:01.411Z,32.4
2023-12-09T03:15:01.202Z,32.2
2023-12-09T03:16:01.451Z,32.4
2023-12-09T03:17:01.112Z,32.4
2023-12-09T03:18:01.374Z,32.4
2023-12-09T03:22:02.296Z,32.4
2023-12-09T03:23:01.129Z,32.5
2023-12-09T03:24:01.432Z,32.5
2023-12-09T03:25:01.183Z,32.5
2023-12-09T03:26:01.411Z,32.5
2023-12-09T03:27:01.109Z,32.7
2023-12-09T03:28:01.774Z,32.7
2023-12-09T03:29:01.100Z,32.2
2023-12-09T03:30:01.602Z,31.8
2023-12-09T03:31:02.194Z,31.6
2023-12-09T03:32:01.096Z,31.6
2023-12-09T03:37:01.755Z,30.9
2023-12-09T03:38:01.524Z,30.7
2023-12-09T03:39:01.554Z,30.7
2023-12-09T03:40:02.018Z,30.9
2023-12-09T03:41:03.597Z,30.7
2023-12-09T03:42:01.573Z,30.7
2023-12-09T03:43:01.202Z,30.7
2023-12-09T03:44:01.816Z,30.7
2023-12-09T03:45:01.548Z,30.7
2023-12-09T03:46:01.857Z,30.7
2023-12-09T03:47:04.840Z,30.7
2023-12-09T03:48:01.934Z,30.6
2023-12-09T03:49:01.698Z,30.4
2023-12-09T03:50:01.558Z,30.4
2023-12-09T03:51:01.539Z,30.2
2023-12-09T03:52:01.192Z,30.0
2023-12-09T03:53:01.194Z,30.0
2023-12-09T03:54:01.561Z,30.0
2023-12-09T03:55:01.198Z,30.2
2023-12-09T03:56:01.194Z,30.2
2023-12-09T03:57:01.237Z,30.2
2023-12-09T03:58:01.198Z,30.2
2023-12-09T03:59:01.428Z,30.2
2023-12-09T04:00:01.245Z,30.2
2023-12-09T04:01:01.516Z,30.2
2023-12-09T04:02:01.317Z,30.2
2023-12-09T04:03:01.258Z,30.2
2023-12-09T04:04:01.295Z,29.8
2023-12-09T04:05:01.546Z,29.7
2023-12-09T04:06:01.252Z,29.5
2023-12-09T04:07:01.521Z,29.5
2023-12-09T04:08:01.198Z,29.5
2023-12-09T04:09:01.246Z,29.7
2023-12-09T04:10:01.428Z,29.7
2023-12-09T04:11:01.196Z,29.7
2023-12-09T04:12:01.760Z,29.7
2023-12-09T04:13:01.194Z,29.7
2023-12-09T04:14:01.499Z,29.7
2023-12-09T04:15:01.568Z,29.7
2023-12-09T04:16:01.781Z,29.7
2023-12-09T04:17:01.206Z,29.7
2023-12-09T04:18:01.427Z,29.7
2023-12-09T04:19:01.319Z,29.5
2023-12-09T04:20:01.269Z,29.3
2023-12-09T04:21:01.423Z,29.3
2023-12-09T04:22:01.185Z,29.3
2023-12-09T04:23:01.499Z,29.3
2023-12-09T04:24:01.212Z,29.5
2023-12-09T04:25:01.176Z,29.5
2023-12-09T04:26:01.523Z,29.5
2023-12-09T04:27:01.253Z,29.5
2023-12-09T04:28:01.282Z,29.7
2023-12-09T04:29:01.261Z,29.7
2023-12-09T04:30:03.146Z,29.5
2023-12-09T04:31:01.507Z,29.7
2023-12-09T04:32:01.327Z,29.7
2023-12-09T04:33:01.225Z,29.7
2023-12-09T04:34:01.383Z,29.7
2023-12-09T04:35:01.667Z,29.5
2023-12-09T04:36:01.588Z,29.5
2023-12-09T04:37:01.533Z,29.5
2023-12-09T04:38:01.225Z,29.3
2023-12-09T04:39:01.579Z,29.5
2023-12-09T04:40:01.390Z,29.5
2023-12-09T04:41:01.240Z,29.5
2023-12-09T04:42:01.203Z,29.5
2023-12-09T04:43:01.343Z,29.5
2023-12-09T04:44:01.211Z,29.5
2023-12-09T04:45:01.234Z,29.3
2023-12-09T04:46:01.176Z,29.3
2023-12-09T04:47:02.712Z,29.3
2023-12-09T04:48:01.461Z,29.3
2023-12-09T04:49:01.716Z,29.3
2023-12-09T04:50:01.183Z,29.3
2023-12-09T04:51:01.236Z,29.5
2023-12-09T04:52:01.532Z,29.5
2023-12-09T04:53:01.512Z,29.3
2023-12-09T04:54:01.387Z,29.3
2023-12-09T04:55:01.306Z,29.3
2023-12-09T04:56:01.530Z,29.3
2023-12-09T04:57:01.270Z,29.3
2023-12-09T04:58:01.562Z,29.3
2023-12-09T04:59:01.182Z,29.3
2023-12-09T05:00:02.587Z,29.3
2023-12-09T05:01:01.175Z,29.3
2023-12-09T05:02:01.196Z,29.3
2023-12-09T05:03:01.255Z,29.3
2023-12-09T05:04:01.369Z,29.3
2023-12-09T05:05:01.404Z,29.1
2023-12-09T05:06:01.401Z,29.3
2023-12-09T05:07:01.521Z,29.1
2023-12-09T05:08:01.187Z,29.1
2023-12-09T05:09:01.600Z,29.3
2023-12-09T05:10:01.210Z,29.3
2023-12-09T05:11:01.501Z,29.3
2023-12-09T05:12:01.245Z,29.3
2023-12-09T05:13:01.518Z,29.1
2023-12-09T05:14:01.546Z,29.1
2023-12-09T05:15:01.566Z,29.1
2023-12-09T05:16:01.430Z,29.3
2023-12-09T05:17:01.513Z,29.3
2023-12-09T05:18:01.335Z,29.3
2023-12-09T05:19:01.375Z,29.3
2023-12-09T05:20:01.191Z,29.3
2023-12-09T05:21:01.516Z,29.3
2023-12-09T05:22:01.504Z,29.3
2023-12-09T05:23:01.523Z,29.5
2023-12-09T05:24:01.205Z,29.3
2023-12-09T05:25:01.179Z,29.5
2023-12-09T05:26:01.189Z,29.7
2023-12-09T05:27:01.746Z,29.5
2023-12-09T05:28:01.177Z,29.7
2023-12-09T05:29:01.201Z,29.5
2023-12-09T05:30:01.299Z,29.5
2023-12-09T05:31:01.192Z,29.8
2023-12-09T05:32:01.168Z,29.8
2023-12-09T05:33:01.661Z,29.8
2023-12-09T05:34:01.331Z,29.8
2023-12-09T05:35:01.180Z,30.0
2023-12-09T05:36:01.192Z,30.0
2023-12-09T05:37:01.260Z,30.2
2023-12-09T05:38:01.794Z,30.2
2023-12-09T05:39:01.203Z,30.2
2023-12-09T05:40:01.185Z,30.4
2023-12-09T05:41:01.930Z,30.4
2023-12-09T05:42:01.535Z,30.0
2023-12-09T05:43:01.189Z,30.2
2023-12-09T05:44:01.191Z,30.2
2023-12-09T05:45:01.277Z,30.2
2023-12-09T05:46:03.802Z,30.4
2023-12-09T05:47:01.539Z,30.4
2023-12-09T05:48:01.629Z,30.4
2023-12-09T05:49:01.422Z,30.4
2023-12-09T05:50:01.555Z,30.4
2023-12-09T05:51:02.193Z,30.4
2023-12-09T05:52:01.190Z,30.4
2023-12-09T05:53:02.638Z,30.4
2023-12-09T05:54:01.541Z,30.6
2023-12-09T05:55:01.594Z,30.7
2023-12-09T05:56:01.212Z,30.7
2023-12-09T05:57:01.259Z,30.7
2023-12-09T05:58:02.663Z,30.7
2023-12-09T05:59:01.588Z,30.7
2023-12-09T06:00:01.832Z,30.7
2023-12-09T06:01:01.710Z,30.7
2023-12-09T06:02:01.207Z,30.7
2023-12-09T06:03:01.517Z,30.9
2023-12-09T06:04:01.238Z,30.9
2023-12-09T06:05:01.196Z,30.9
2023-12-09T06:06:01.240Z,30.9
2023-12-09T06:07:01.279Z,30.7
2023-12-09T06:08:01.717Z,30.9
2023-12-09T06:09:01.210Z,30.9
2023-12-09T06:10:01.564Z,31.1
2023-12-09T06:11:02.097Z,31.3
2023-12-09T06:12:01.218Z,31.3
2023-12-09T06:13:01.223Z,31.5
2023-12-09T06:14:01.182Z,31.6
2023-12-09T06:15:01.302Z,31.6
2023-12-09T06:16:01.574Z,31.5
2023-12-09T06:17:01.194Z,31.5
2023-12-09T06:18:01.358Z,31.5
2023-12-09T06:19:01.224Z,31.5
2023-12-09T06:20:01.273Z,31.6
2023-12-09T06:21:01.249Z,31.6
2023-12-09T06:22:01.436Z,31.6
2023-12-09T06:23:01.195Z,31.5
2023-12-09T06:24:01.560Z,31.6
2023-12-09T06:25:01.552Z,31.6
2023-12-09T06:26:02.689Z,31.6
2023-12-09T06:27:01.236Z,31.8
2023-12-09T06:28:01.204Z,31.8
2023-12-09T06:29:01.205Z,31.6
2023-12-09T06:30:01.587Z,31.8
2023-12-09T06:31:01.171Z,31.8
2023-12-09T06:32:01.188Z,31.8
2023-12-09T06:33:01.457Z,32.0
2023-12-09T06:34:01.368Z,31.8
2023-12-09T06:35:01.199Z,32.0
2023-12-09T06:36:01.192Z,32.0
2023-12-09T06:37:01.556Z,32.0
2023-12-09T06:38:01.172Z,32.0
2023-12-09T06:39:03.249Z,32.2
2023-12-09T06:40:01.175Z,32.2
2023-12-09T06:41:01.194Z,32.2
2023-12-09T06:42:01.622Z,32.2
2023-12-09T06:43:01.178Z,32.2
2023-12-09T06:44:01.321Z,32.2
2023-12-09T06:45:01.228Z,32.2
2023-12-09T06:46:01.300Z,32.2
2023-12-09T06:47:01.190Z,32.4
2023-12-09T06:48:01.385Z,32.4
2023-12-09T06:49:03.838Z,32.5
2023-12-09T06:50:01.509Z,32.7
2023-12-09T06:51:01.600Z,32.7
2023-12-09T06:52:01.556Z,32.7
2023-12-09T06:53:01.225Z,32.7
2023-12-09T06:54:01.247Z,32.7
2023-12-09T06:55:01.652Z,32.7
2023-12-09T06:56:01.524Z,32.5
2023-12-09T06:57:01.224Z,32.5
2023-12-09T06:58:02.517Z,32.5
2023-12-09T06:59:01.193Z,32.5
2023-12-09T07:00:01.749Z,32.5
2023-12-09T07:01:01.387Z,32.5
2023-12-09T07:02:01.180Z,32.4
2023-12-09T07:03:01.465Z,32.5
2023-12-09T07:04:01.666Z,32.5
2023-12-09T07:05:01.229Z,32.5
2023-12-09T07:06:02.051Z,32.7
2023-12-09T07:07:01.548Z,32.5
2023-12-09T07:08:01.191Z,32.5
2023-12-09T07:09:01.211Z,32.5
2023-12-09T07:10:01.183Z,32.7
2023-12-09T07:11:01.269Z,32.7
2023-12-09T07:12:02.794Z,32.5
2023-12-09T07:13:01.198Z,32.7
2023-12-09T07:14:01.241Z,32.5
2023-12-09T07:15:01.228Z,32.7
2023-12-09T07:16:01.651Z,32.7
2023-12-09T07:17:01.514Z,32.7
2023-12-09T07:18:01.361Z,32.7
2023-12-09T07:19:01.770Z,32.9
2023-12-09T07:20:01.567Z,32.9
2023-12-09T07:21:01.233Z,32.9
2023-12-09T07:22:01.219Z,33.1
2023-12-09T07:23:01.649Z,33.1
2023-12-09T07:24:01.260Z,33.1
2023-12-09T07:25:01.537Z,33.3
2023-12-09T07:26:01.504Z,33.3
2023-12-09T07:27:01.274Z,33.1
2023-12-09T07:28:01.514Z,33.1
2023-12-09T07:29:01.178Z,32.9
2023-12-09T07:30:01.673Z,33.1
2023-12-09T07:31:01.863Z,32.9
2023-12-09T07:32:01.494Z,32.9
2023-12-09T07:33:01.298Z,32.9
2023-12-09T07:34:01.705Z,32.9
2023-12-09T07:35:01.278Z,32.9
2023-12-09T07:36:01.632Z,32.9
2023-12-09T07:37:01.520Z,32.9
2023-12-09T07:38:01.175Z,32.9
2023-12-09T07:39:01.459Z,32.9
2023-12-09T07:40:01.204Z,32.9
2023-12-09T07:41:01.186Z,32.9
2023-12-09T07:42:01.257Z,32.9
2023-12-09T07:43:01.190Z,32.9
2023-12-09T07:44:01.185Z,33.1
2023-12-09T07:45:01.212Z,33.1
2023-12-09T07:46:01.185Z,33.1
2023-12-09T07:47:01.306Z,32.9
2023-12-09T07:48:01.462Z,32.9
2023-12-09T07:49:01.604Z,32.9
2023-12-09T07:50:01.553Z,32.9
2023-12-09T07:51:01.383Z,32.9
2023-12-09T07:52:01.203Z,33.1
2023-12-09T07:53:01.620Z,33.1
2023-12-09T07:54:01.567Z,33.1
2023-12-09T07:55:01.202Z,33.1
2023-12-09T07:56:01.172Z,33.3
2023-12-09T07:57:01.215Z,33.1
2023-12-09T07:58:01.505Z,33.3
2023-12-09T07:59:01.186Z,33.4
2023-12-09T08:00:01.227Z,33.4
2023-12-09T08:01:01.855Z,33.4
2023-12-09T08:02:01.183Z,33.4
2023-12-09T08:03:04.229Z,33.3
2023-12-09T08:04:01.598Z,33.1
2023-12-09T08:05:01.579Z,33.1
2023-12-09T08:06:01.270Z,33.1
2023-12-09T08:07:01.520Z,33.1
2023-12-09T08:08:01.562Z,33.3
2023-12-09T08:09:01.253Z,33.4
2023-12-09T08:10:01.194Z,33.4
2023-12-09T08:11:01.198Z,33.3
2023-12-09T08:12:01.447Z,33.3
2023-12-09T08:13:01.193Z,33.3
2023-12-09T08:14:01.523Z,33.3
2023-12-09T08:15:01.275Z,33.4
2023-12-09T08:16:01.196Z,33.3
2023-12-09T08:17:01.188Z,33.3
2023-12-09T08:18:01.728Z,33.3
2023-12-09T08:19:01.582Z,33.3
2023-12-09T08:20:01.502Z,33.1
2023-12-09T08:21:01.513Z,33.3
2023-12-09T08:22:01.613Z,33.4
2023-12-09T08:23:01.873Z,33.6
2023-12-09T08:24:01.213Z,33.6
2023-12-09T08:25:01.181Z,33.6
2023-12-09T08:26:01.181Z,33.6
2023-12-09T08:27:01.233Z,33.6
2023-12-09T08:28:01.512Z,33.6
2023-12-09T08:29:01.182Z,33.8
2023-12-09T08:30:01.333Z,33.8
2023-12-09T08:31:01.529Z,33.6
2023-12-09T08:32:01.695Z,33.6
2023-12-09T08:33:01.671Z,33.6
2023-12-09T08:34:01.332Z,33.4
2023-12-09T08:35:09.079Z,33.4
2023-12-09T08:36:01.214Z,33.4
2023-12-09T08:37:01.569Z,33.4
2023-12-09T08:38:01.190Z,33.4
2023-12-09T08:39:01.230Z,33.4
2023-12-09T08:40:05.356Z,33.4
2023-12-09T08:41:01.515Z,33.4
2023-12-09T08:42:01.253Z,33.6
2023-12-09T08:43:01.212Z,33.6
2023-12-09T08:44:02.752Z,33.6
2023-12-09T08:45:01.439Z,33.6
2023-12-09T08:46:01.193Z,33.6
2023-12-09T08:47:01.618Z,33.4
2023-12-09T08:48:01.333Z,33.4
2023-12-09T08:49:01.387Z,33.6
2023-12-09T08:50:02.022Z,33.8
2023-12-09T08:51:01.207Z,34.0
2023-12-09T08:52:01.199Z,34.2
2023-12-09T08:53:01.548Z,34.2
2023-12-09T08:54:01.523Z,34.2
2023-12-09T08:55:02.139Z,34.2
2023-12-09T08:56:01.413Z,34.2
2023-12-09T08:57:01.618Z,34.0
2023-12-09T08:58:01.184Z,34.0
2023-12-09T08:59:01.177Z,33.8
2023-12-09T09:00:01.904Z,34.0
2023-12-09T09:01:01.589Z,34.0
2023-12-09T09:02:01.507Z,33.8
2023-12-09T09:03:01.551Z,34.0
2023-12-09T09:04:01.962Z,34.0
2023-12-09T09:05:01.273Z,34.0
2023-12-09T09:06:01.728Z,34.2
2023-12-09T09:07:01.314Z,34.2
2023-12-09T09:08:01.176Z,34.2
2023-12-09T09:09:01.572Z,34.2
2023-12-09T09:10:01.179Z,34.2
2023-12-09T09:11:01.727Z,34.2
2023-12-09T09:12:01.566Z,34.2
2023-12-09T09:13:01.490Z,34.0
2023-12-09T09:14:01.175Z,34.3
2023-12-09T09:15:05.034Z,34.2
2023-12-09T09:16:01.233Z,34.3
2023-12-09T09:17:01.168Z,34.3
2023-12-09T09:18:01.838Z,34.3
2023-12-09T09:19:01.568Z,34.5
2023-12-09T09:20:01.543Z,34.5
2023-12-09T09:21:01.202Z,34.5
2023-12-09T09:22:01.209Z,34.3
2023-12-09T09:23:01.185Z,34.0
2023-12-09T09:24:01.206Z,34.0
2023-12-09T09:25:01.803Z,34.0
2023-12-09T09:26:01.244Z,33.8
2023-12-09T09:27:01.247Z,33.8
2023-12-09T09:28:01.534Z,34.0
2023-12-09T09:29:01.340Z,34.0
2023-12-09T09:30:01.637Z,34.0
2023-12-09T09:31:01.185Z,34.2
2023-12-09T09:32:01.197Z,34.2
2023-12-09T09:33:01.471Z,34.2
2023-12-09T09:34:01.304Z,34.2
2023-12-09T09:35:01.599Z,34.3
2023-12-09T09:36:01.197Z,34.5
2023-12-09T09:37:01.515Z,34.5
2023-12-09T09:38:01.179Z,34.7
2023-12-09T09:39:01.552Z,34.5
2023-12-09T09:40:01.507Z,34.3
2023-12-09T09:41:07.121Z,34.3
2023-12-09T09:42:09.868Z,34.5
2023-12-09T09:43:07.894Z,34.5
2023-12-09T09:44:11.675Z,34.3
2023-12-09T09:45:10.081Z,34.3
2023-12-09T09:46:01.793Z,34.2
2023-12-09T09:47:01.936Z,34.0
2023-12-09T09:48:04.204Z,34.0
2023-12-09T09:49:03.181Z,34.0
2023-12-09T09:50:02.722Z,34.0
2023-12-09T09:51:03.586Z,34.0
2023-12-09T09:52:02.574Z,34.0
2023-12-09T09:53:03.391Z,34.0
2023-12-09T09:54:10.558Z,33.8
2023-12-09T09:55:02.400Z,34.0
2023-12-09T09:56:01.892Z,34.0
2023-12-09T09:57:02.059Z,34.0
2023-12-09T09:58:02.420Z,33.8
2023-12-09T09:59:01.553Z,33.8
2023-12-09T10:00:01.794Z,33.8
2023-12-09T10:01:03.779Z,33.8
2023-12-09T10:02:04.169Z,33.8
2023-12-09T10:03:04.239Z,33.6
2023-12-09T10:04:01.372Z,33.6
2023-12-09T10:05:01.201Z,33.6
2023-12-09T10:06:02.146Z,33.6
2023-12-09T10:07:03.676Z,33.6
2023-12-09T10:08:01.412Z,33.6
2023-12-09T10:09:01.819Z,33.6
2023-12-09T10:10:01.655Z,33.4
2023-12-09T10:11:01.204Z,33.6
2023-12-09T10:12:01.222Z,33.4
2023-12-09T10:13:01.396Z,33.4
2023-12-09T10:14:01.212Z,33.4
2023-12-09T10:15:01.860Z,33.4
2023-12-09T10:16:01.516Z,33.4
2023-12-09T10:17:03.087Z,33.3
2023-12-09T10:18:02.321Z,33.3
2023-12-09T10:19:01.699Z,33.3
2023-12-09T10:20:01.658Z,33.3
2023-12-09T10:21:01.593Z,33.3
2023-12-09T10:22:01.521Z,33.3
2023-12-09T10:23:01.540Z,33.3
2023-12-09T10:24:04.437Z,33.3
2023-12-09T10:25:01.596Z,33.1
2023-12-09T10:26:02.135Z,33.3
2023-12-09T10:27:01.639Z,33.1
2023-12-09T10:28:01.648Z,33.1
2023-12-09T10:29:01.325Z,33.3
2023-12-09T10:30:01.905Z,33.3
2023-12-09T10:31:01.787Z,33.3
2023-12-09T10:32:01.250Z,33.1
2023-12-09T10:33:01.569Z,33.3
2023-12-09T10:34:01.971Z,33.1
2023-12-09T10:35:04.520Z,33.1
2023-12-09T10:36:01.648Z,33.1
2023-12-09T10:37:01.759Z,33.1
2023-12-09T10:38:01.244Z,33.1
2023-12-09T10:39:03.435Z,33.1
2023-12-09T10:40:02.703Z,33.3
2023-12-09T10:41:04.650Z,33.1
2023-12-09T10:42:03.600Z,33.1
2023-12-09T10:43:01.771Z,33.1
2023-12-09T10:44:01.499Z,33.1
2023-12-09T10:45:02.281Z,32.9
2023-12-09T10:46:02.935Z,32.9
2023-12-09T10:47:01.280Z,33.1
2023-12-09T10:48:01.363Z,32.9
2023-12-09T10:49:01.274Z,33.1
2023-12-09T10:50:01.581Z,33.1
2023-12-09T10:51:01.279Z,33.1
2023-12-09T10:52:01.664Z,33.1
2023-12-09T10:53:01.212Z,33.3
2023-12-09T10:54:01.267Z,33.3
2023-12-09T10:55:01.194Z,33.3
2023-12-09T10:56:02.217Z,33.4
2023-12-09T10:57:02.903Z,33.4
2023-12-09T10:58:04.369Z,33.4
2023-12-09T10:59:02.156Z,33.6
2023-12-09T11:00:02.698Z,33.6
2023-12-09T11:01:02.490Z,33.6
2023-12-09T11:02:01.969Z,33.6
2023-12-09T11:03:02.331Z,33.6
2023-12-09T11:04:02.159Z,33.4
2023-12-09T11:05:02.057Z,33.4
2023-12-09T11:06:04.712Z,33.4
2023-12-09T11:07:04.555Z,33.4
2023-12-09T11:08:02.025Z,33.3
2023-12-09T11:09:02.402Z,33.3
2023-12-09T11:10:03.597Z,33.3
2023-12-09T11:11:02.602Z,33.3
2023-12-09T11:12:01.354Z,33.3
2023-12-09T11:13:01.657Z,33.3
2023-12-09T11:14:01.519Z,33.3
2023-12-09T11:15:06.016Z,33.3
2023-12-09T11:16:10.428Z,33.3
2023-12-09T11:17:01.543Z,33.4
2023-12-09T11:18:08.069Z,33.4
2023-12-09T11:19:01.645Z,33.3
2023-12-09T11:20:04.096Z,33.4
2023-12-09T11:21:03.045Z,33.3
2023-12-09T11:22:01.174Z,33.4
2023-12-09T11:23:01.202Z,33.3
2023-12-09T11:24:01.566Z,33.4
2023-12-09T11:25:01.185Z,33.4
2023-12-09T11:26:01.204Z,33.4
2023-12-09T11:27:01.211Z,33.4
2023-12-09T11:28:03.362Z,33.4
2023-12-09T11:29:03.368Z,33.4
2023-12-09T11:30:02.350Z,33.3
2023-12-09T11:31:02.283Z,33.1
2023-12-09T11:32:07.092Z,33.1
2023-12-09T11:33:02.084Z,33.1
2023-12-09T11:34:02.660Z,33.1
2023-12-09T11:35:02.342Z,33.1
2023-12-09T11:36:02.745Z,33.1
2023-12-09T11:37:02.401Z,33.1
2023-12-09T11:38:03.556Z,33.1
2023-12-09T11:39:02.137Z,32.9
2023-12-09T11:40:01.949Z,32.9
2023-12-09T11:41:01.718Z,32.7
2023-12-09T11:42:01.906Z,32.7
2023-12-09T11:43:02.780Z,32.5
2023-12-09T11:44:02.058Z,32.4
2023-12-09T11:45:03.148Z,32.5
2023-12-09T11:46:02.289Z,32.7
2023-12-09T11:47:02.078Z,32.4
2023-12-09T11:48:02.243Z,32.4
2023-12-09T11:49:03.506Z,32.4
2023-12-09T11:50:02.412Z,32.4
2023-12-09T11:51:02.966Z,32.4
2023-12-09T11:52:01.876Z,32.4
2023-12-09T11:53:01.514Z,32.4
2023-12-09T11:54:03.802Z,32.4
2023-12-09T11:55:02.130Z,32.4
2023-12-09T11:56:01.539Z,32.5
2023-12-09T11:57:02.944Z,32.5
2023-12-09T11:58:01.199Z,32.5
2023-12-09T11:59:01.692Z,32.5
2023-12-09T12:00:01.601Z,32.7
2023-12-09T12:01:01.318Z,32.7
2023-12-09T12:02:01.221Z,32.7
2023-12-09T12:03:01.523Z,32.7
2023-12-09T12:04:01.706Z,32.7
2023-12-09T12:05:01.556Z,32.9
2023-12-09T12:06:01.669Z,32.7
2023-12-09T12:07:01.707Z,32.7
2023-12-09T12:08:01.211Z,32.5
2023-12-09T12:09:01.792Z,32.7
2023-12-09T12:10:01.452Z,32.5
2023-12-09T12:11:01.225Z,32.5
2023-12-09T12:12:01.367Z,32.5
2023-12-09T12:13:01.777Z,32.4
2023-12-09T12:14:02.068Z,32.4
2023-12-09T12:15:02.596Z,32.4
2023-12-09T12:16:01.661Z,32.2
2023-12-09T12:17:01.725Z,32.2
2023-12-09T12:18:01.595Z,32.4
2023-12-09T12:19:01.627Z,32.2
2023-12-09T12:20:01.206Z,32.2
2023-12-09T12:21:01.828Z,32.2
2023-12-09T12:22:01.629Z,32.2
2023-12-09T12:23:02.230Z,32.0
2023-12-09T12:24:02.848Z,32.0
2023-12-09T12:25:01.775Z,32.0
2023-12-09T12:26:01.855Z,32.0
2023-12-09T12:27:03.251Z,32.0
2023-12-09T12:28:01.276Z,32.0
2023-12-09T12:29:01.437Z,32.2
2023-12-09T12:30:01.765Z,32.2
2023-12-09T12:31:01.821Z,32.4
2023-12-09T12:32:01.642Z,32.2
2023-12-09T12:33:02.284Z,32.2
2023-12-09T12:34:14.313Z,32.2
2023-12-09T12:35:03.120Z,32.2
2023-12-09T12:36:01.335Z,32.2
2023-12-09T12:37:01.660Z,32.4
2023-12-09T12:38:01.610Z,32.4
2023-12-09T12:39:01.303Z,32.4
2023-12-09T12:40:01.285Z,32.2
2023-12-09T12:41:01.403Z,32.0
2023-12-09T12:42:01.388Z,32.0
2023-12-09T12:43:02.741Z,32.0
2023-12-09T12:44:01.652Z,32.0
2023-12-09T12:45:01.231Z,32.0
2023-12-09T12:46:01.494Z,32.2
2023-12-09T12:47:01.365Z,32.2
2023-12-09T12:48:01.432Z,32.0
2023-12-09T12:49:01.838Z,32.2
2023-12-09T12:50:01.252Z,32.2
2023-12-09T12:51:01.424Z,32.4
2023-12-09T12:52:01.812Z,32.4
2023-12-09T12:53:01.368Z,32.4
2023-12-09T12:54:02.189Z,32.4
2023-12-09T12:55:02.002Z,32.5
2023-12-09T12:56:01.311Z,32.5
2023-12-09T12:57:01.607Z,32.5
2023-12-09T12:58:01.897Z,32.5
2023-12-09T12:59:01.231Z,32.5
2023-12-09T13:00:07.570Z,32.5
2023-12-09T13:01:01.365Z,32.7
2023-12-09T13:02:01.268Z,32.9
2023-12-09T13:03:01.632Z,32.7
2023-12-09T13:04:01.338Z,32.9
2023-12-09T13:05:01.655Z,33.1
2023-12-09T13:06:01.776Z,33.3
2023-12-09T13:07:01.310Z,33.6
2023-12-09T13:08:01.263Z,33.8
2023-12-09T13:09:01.558Z,33.8
2023-12-09T13:10:01.258Z,34.0
2023-12-09T13:11:01.218Z,34.0
2023-12-09T13:12:01.350Z,34.2
2023-12-09T13:13:01.202Z,34.2
2023-12-09T13:14:01.303Z,34.3
2023-12-09T13:15:01.943Z,34.5
2023-12-09T13:16:01.239Z,34.7
2023-12-09T13:17:02.194Z,34.9
2023-12-09T13:18:01.790Z,35.2
2023-12-09T13:19:01.310Z,35.4
2023-12-09T13:20:02.047Z,35.4
2023-12-09T13:21:01.637Z,35.6
2023-12-09T13:22:01.216Z,35.8
2023-12-09T13:23:01.237Z,35.8
2023-12-09T13:24:01.234Z,35.6
2023-12-09T13:25:03.139Z,35.4